Time;durP1;ratioP1;P1;durP2;ratioP2;P2;SDS_P1;SDS_P2;PMS_P1;PMS_P2;Temp;Humidity;BMP_temperature;BMP_pressure;BME280_temperature;BME280_humidity;BME280_pressure;Samples;Min_cycle;Max_cycle;Signal;HPM_P1;HPM_P2
2023/04/08 00:01:26;;;;;;;;;;;;;;;;;;5136752;27;2294;-39
2023/04/08 00:03:53;;;;;;;;;;;;;;;;;;5156731;27;1840;-39
2023/04/08 00:06:20;;;;;;;;;;;;;;;;;;5156403;27;1912;-38
2023/04/08 00:08:47;;;;;;;;;;;;;;;;;;5156463;27;1820;-46
2023/04/08 00:11:15;;;;;;;;;;;;;;;;;;5156549;27;1827;-39
2023/04/08 00:13:42;;;;;;;;;;;;;;;;;;5156870;27;2182;-39
2023/04/08 00:16:09;;;;;;;;;;;;;;;;;;5156406;27;1757;-44
2023/04/08 00:18:38;;;;;;;;;;;;;;;;;;5156418;27;1721;-39
2023/04/08 00:21:05;;;;;;;;;;;;;;;;;;5156249;27;1458;-39
2023/04/08 00:23:32;;;;;;;;;;;;;;;;;;5156259;27;2250;-39
2023/04/08 00:25:59;;;;;;;;;;;;;;;;;;5156307;27;1901;-43
2023/04/08 00:28:26;;;;;;;;;;;;;;;;;;5156268;27;1421;-38
2023/04/08 00:30:54;;;;;;;;;;;;;;;;;;5137675;27;1906;-41
2023/04/08 00:33:23;;;;;;;;;;;;;;;;;;5156001;27;1470;-45
2023/04/08 00:35:51;;;;;;;;;;;;;;;;;;5155810;27;1905;-40
2023/04/08 00:38:18;;;;;;;;;;;;;;;;;;5156034;27;1940;-39
2023/04/08 00:40:45;;;;;;;;;;;;;;;;;;5137632;27;1665;-41
2023/04/08 00:43:15;;;;;;;;;;;;;;;;;;5155933;27;2298;-42
2023/04/08 00:45:42;;;;;;;;;;;;;;;;;;5156459;27;1923;-40
2023/04/08 00:48:10;;;;;;;;;;;;;;;;;;5155511;27;1651;-40
2023/04/08 00:50:37;;;;;;;;;;;;;;;;;;5137049;27;1965;-44
2023/04/08 00:53:04;;;;;;;;;;;;;;;;;;5155734;27;1546;-38
2023/04/08 00:55:32;;;;;;;;;;;;;;;;;;5152814;27;2160;-40
2023/04/08 00:57:59;;;;;;;;;;;;;;;;;;5134946;27;1487;-38
2023/04/08 01:00:29;;;;;;;;;;;;;;;;;;5134747;27;1860;-42
2023/04/08 01:03:15;;;;;;;;;;;;;;;;;;5134938;27;1628;-45
2023/04/08 01:05:58;;;;;;;;;;;;;;;;;;5134700;27;2275;-45
2023/04/08 01:08:28;;;;;;;;;;;;;;;;;;5116357;27;2150;-51
2023/04/08 01:11:00;;;;;;;;;;;;;;;;;;5134138;27;1964;-39
2023/04/08 01:13:30;;;;;;;;;;;;;;;;;;5133986;27;1863;-40
2023/04/08 01:15:58;;;;;;;;;;;;;;;;;;5116110;27;1849;-43
2023/04/08 01:18:26;;;;;;;;;;;;;;;;;;5116338;27;2106;-41
2023/04/08 01:20:53;;;;;;;;;;;;;;;;;;5134508;27;1805;-50
2023/04/08 01:23:40;;;;;;;;;;;;;;;;;;5134519;27;2227;-45
2023/04/08 01:26:08;;;;;;;;;;;;;;;;;;5134235;27;1981;-43
2023/04/08 01:28:36;;;;;;;;;;;;;;;;;;5134443;27;2035;-42
2023/04/08 01:31:03;;;;;;;;;;;;;;;;;;5134567;27;1930;-42
2023/04/08 01:33:31;;;;;;;;;;;;;;;;;;5134047;27;2201;-45
2023/04/08 01:35:59;;;;;;;;;;;;;;;;;;5134153;27;1780;-41
2023/04/08 01:38:28;;;;;;;;;;;;;;;;;;5115955;27;2097;-42
2023/04/08 01:40:56;;;;;;;;;;;;;;;;;;5134167;27;1749;-39
2023/04/08 01:43:23;;;;;;;;;;;;;;;;;;5133885;27;1255;-39
2023/04/08 01:45:53;;;;;;;;;;;;;;;;;;5115286;27;2232;-40
2023/04/08 01:48:20;;;;;;;;;;;;;;;;;;5134105;27;2529;-42
2023/04/08 01:50:48;;;;;;;;;;;;;;;;;;5134073;27;2358;-40
2023/04/08 01:53:15;;;;;;;;;;;;;;;;;;5134009;27;1844;-41
2023/04/08 01:55:44;;;;;;;;;;;;;;;;;;5133659;27;2116;-46
2023/04/08 01:58:15;;;;;;;;;;;;;;;;;;5133669;27;1963;-40
2023/04/08 02:00:43;;;;;;;;;;;;;;;;;;5133801;27;1264;-39
2023/04/08 02:03:14;;;;;;;;;;;;;;;;;;5133289;27;1920;-47
2023/04/08 02:05:44;;;;;;;;;;;;;;;;;;5115048;27;1989;-42
2023/04/08 02:08:12;;;;;;;;;;;;;;;;;;5133601;27;1910;-39
2023/04/08 02:10:39;;;;;;;;;;;;;;;;;;5133582;27;2190;-43
2023/04/08 02:13:07;;;;;;;;;;;;;;;;;;5133615;27;2052;-43
2023/04/08 02:15:36;;;;;;;;;;;;;;;;;;5133445;27;2057;-45
2023/04/08 02:18:15;;;;;;;;;;;;;;;;;;5133600;27;1832;-40
2023/04/08 02:20:49;;;;;;;;;;;;;;;;;;5133305;27;1875;-40
2023/04/08 02:23:18;;;;;;;;;;;;;;;;;;5114247;27;2173;-40
2023/04/08 02:25:47;;;;;;;;;;;;;;;;;;5132574;27;1915;-39
2023/04/08 02:28:16;;;;;;;;;;;;;;;;;;5133114;27;2253;-39
2023/04/08 02:30:48;;;;;;;;;;;;;;;;;;5114629;27;2033;-39
2023/04/08 02:33:16;;;;;;;;;;;;;;;;;;5114619;27;1622;-39
2023/04/08 02:35:44;;;;;;;;;;;;;;;;;;5132698;27;1826;-39
2023/04/08 02:38:11;;;;;;;;;;;;;;;;;;5132849;27;1970;-39
2023/04/08 02:40:39;;;;;;;;;;;;;;;;;;5133046;27;1882;-40
2023/04/08 02:43:06;;;;;;;;;;;;;;;;;;5132796;27;1796;-39
2023/04/08 02:45:41;;;;;;;;;;;;;;;;;;5132809;27;1986;-39
2023/04/08 02:48:09;;;;;;;;;;;;;;;;;;5132398;27;1601;-39
2023/04/08 02:50:37;;;;;;;;;;;;;;;;;;5132809;27;1934;-39
2023/04/08 02:53:04;;;;;;;;;;;;;;;;;;5132467;27;1655;-39
2023/04/08 02:55:33;;;;;;;;;;;;;;;;;;5151452;27;2110;-40
2023/04/08 02:58:00;;;;;;;;;;;;;;;;;;5153410;27;2020;-39
2023/04/08 03:00:27;;;;;;;;;;;;;;;;;;5153413;27;1998;-41
2023/04/08 03:02:55;;;;;;;;;;;;;;;;;;5153384;27;1798;-39
2023/04/08 03:05:22;;;;;;;;;;;;;;;;;;5153308;27;1973;-40
2023/04/08 03:07:50;;;;;;;;;;;;;;;;;;5130421;27;1588;-39
2023/04/08 03:10:17;;;;;;;;;;;;;;;;;;5132440;27;1813;-45
2023/04/08 03:12:45;;;;;;;;;;;;;;;;;;5132378;27;2217;-39
2023/04/08 03:15:12;;;;;;;;;;;;;;;;;;5132246;27;2255;-40
2023/04/08 03:17:40;;;;;;;;;;;;;;;;;;5132349;27;2007;-44
2023/04/08 03:20:07;;;;;;;;;;;;;;;;;;5131945;27;1800;-45
2023/04/08 03:22:34;;;;;;;;;;;;;;;;;;5132407;27;1982;-49
2023/04/08 03:25:02;;;;;;;;;;;;;;;;;;5132108;27;2057;-40
2023/04/08 03:27:29;;;;;;;;;;;;;;;;;;5131921;27;2090;-44
2023/04/08 03:29:56;;;;;;;;;;;;;;;;;;5132504;27;2102;-39
2023/04/08 03:32:24;;;;;;;;;;;;;;;;;;5132119;27;2271;-40
2023/04/08 03:34:51;;;;;;;;;;;;;;;;;;5131663;27;1929;-44
2023/04/08 03:37:18;;;;;;;;;;;;;;;;;;5131887;27;2298;-41
2023/04/08 03:39:45;;;;;;;;;;;;;;;;;;5132164;27;1706;-48
2023/04/08 03:42:13;;;;;;;;;;;;;;;;;;5131967;27;1988;-44
2023/04/08 03:44:40;;;;;;;;;;;;;;;;;;5131795;27;2240;-39
2023/04/08 03:47:07;;;;;;;;;;;;;;;;;;5131040;27;1981;-40
2023/04/08 03:49:35;;;;;;;;;;;;;;;;;;5131583;28;1840;-44
2023/04/08 03:52:02;;;;;;;;;;;;;;;;;;5131902;28;1790;-41
2023/04/08 03:54:30;;;;;;;;;;;;;;;;;;5131819;27;1801;-45
2023/04/08 03:56:57;;;;;;;;;;;;;;;;;;5132197;28;1971;-42
2023/04/08 03:59:24;;;;;;;;;;;;;;;;;;5132449;28;1754;-45
2023/04/08 04:01:52;;;;;;;;;;;;;;;;;;5131655;28;1926;-41
2023/04/08 04:04:19;;;;;;;;;;;;;;;;;;5131765;28;1743;-47
2023/04/08 04:06:47;;;;;;;;;;;;;;;;;;5131953;28;1973;-40
2023/04/08 04:09:15;;;;;;;;;;;;;;;;;;5131101;27;1906;-39
2023/04/08 04:11:45;;;;;;;;;;;;;;;;;;5131833;28;1857;-41
2023/04/08 04:14:12;;;;;;;;;;;;;;;;;;5131724;28;1910;-39
2023/04/08 04:16:40;;;;;;;;;;;;;;;;;;5131668;28;1847;-40
2023/04/08 04:19:07;;;;;;;;;;;;;;;;;;5131959;28;1635;-40
2023/04/08 04:21:34;;;;;;;;;;;;;;;;;;5131365;28;1784;-40
2023/04/08 04:24:04;;;;;;;;;;;;;;;;;;5131547;28;1921;-44
2023/04/08 04:26:31;;;;;;;;;;;;;;;;;;5131268;28;1911;-39
2023/04/08 04:28:58;;;;;;;;;;;;;;;;;;5131604;28;2135;-45
2023/04/08 04:31:26;;;;;;;;;;;;;;;;;;5131676;28;2050;-45
2023/04/08 04:33:53;;;;;;;;;;;;;;;;;;5131543;28;1980;-52
2023/04/08 04:36:20;;;;;;;;;;;;;;;;;;5131432;28;2008;-41
2023/04/08 04:38:48;;;;;;;;;;;;;;;;;;5131570;28;1951;-40
2023/04/08 04:41:16;;;;;;;;;;;;;;;;;;5131334;28;1721;-39
2023/04/08 04:43:43;;;;;;;;;;;;;;;;;;5131375;28;2109;-40
2023/04/08 04:46:11;;;;;;;;;;;;;;;;;;5130930;27;1913;-41
2023/04/08 04:48:38;;;;;;;;;;;;;;;;;;5134147;27;1845;-41
2023/04/08 04:51:06;;;;;;;;;;;;;;;;;;5148270;27;1961;-41
2023/04/08 04:53:33;;;;;;;;;;;;;;;;;;5155912;27;1567;-44
2023/04/08 04:56:00;;;;;;;;;;;;;;;;;;5148535;27;1454;-39
2023/04/08 04:58:28;;;;;;;;;;;;;;;;;;5134437;27;1970;-39
2023/04/08 05:00:55;;;;;;;;;;;;;;;;;;5134285;27;1920;-40
2023/04/08 05:03:22;;;;;;;;;;;;;;;;;;5134522;27;1901;-40
2023/04/08 05:05:52;;;;;;;;;;;;;;;;;;5134970;27;1979;-43
2023/04/08 05:08:20;;;;;;;;;;;;;;;;;;5134702;27;1974;-40
2023/04/08 05:10:49;;;;;;;;;;;;;;;;;;5134625;27;2064;-40
2023/04/08 05:13:17;;;;;;;;;;;;;;;;;;5134946;27;1878;-46
2023/04/08 05:15:47;;;;;;;;;;;;;;;;;;5134473;27;2094;-40
2023/04/08 05:18:14;;;;;;;;;;;;;;;;;;5134902;27;1831;-43
2023/04/08 05:20:41;;;;;;;;;;;;;;;;;;5134269;27;1846;-44
2023/04/08 05:23:08;;;;;;;;;;;;;;;;;;5134394;27;1680;-40
2023/04/08 05:25:36;;;;;;;;;;;;;;;;;;5134468;27;1957;-45
2023/04/08 05:28:03;;;;;;;;;;;;;;;;;;5134809;27;1797;-42
2023/04/08 05:30:30;;;;;;;;;;;;;;;;;;5134555;27;1985;-40
2023/04/08 05:32:57;;;;;;;;;;;;;;;;;;5134214;27;2090;-42
2023/04/08 05:35:26;;;;;;;;;;;;;;;;;;5134117;27;1735;-44
2023/04/08 05:37:54;;;;;;;;;;;;;;;;;;5134115;27;1242;-44
2023/04/08 05:40:21;;;;;;;;;;;;;;;;;;5134160;27;1786;-41
2023/04/08 05:42:48;;;;;;;;;;;;;;;;;;5134105;27;1860;-44
2023/04/08 05:45:17;;;;;;;;;;;;;;;;;;5134072;27;1967;-39
2023/04/08 05:47:45;;;;;;;;;;;;;;;;;;5133830;27;2166;-43
2023/04/08 05:50:12;;;;;;;;;;;;;;;;;;5134092;27;1935;-41
2023/04/08 05:52:46;;;;;;;;;;;;;;;;;;5134028;27;2150;-41
2023/04/08 05:55:13;;;;;;;;;;;;;;;;;;5134154;27;2041;-40
2023/04/08 05:57:40;;;;;;;;;;;;;;;;;;5134044;27;1987;-49
2023/04/08 06:00:08;;;;;;;;;;;;;;;;;;5154206;27;1836;-40
2023/04/08 06:02:36;;;;;;;;;;;;;;;;;;5154675;27;1726;-40
2023/04/08 06:05:05;;;;;;;;;;;;;;;;;;5154612;27;1806;-39
2023/04/08 06:07:33;;;;;;;;;;;;;;;;;;5154761;27;1905;-41
2023/04/08 06:10:01;;;;;;;;;;;;;;;;;;5154462;27;2127;-46
2023/04/08 06:12:28;;;;;;;;;;;;;;;;;;5135879;27;2130;-41
2023/04/08 06:14:55;;;;;;;;;;;;;;;;;;5135703;27;2420;-42
2023/04/08 06:17:23;;;;;;;;;;;;;;;;;;5154384;27;1959;-48
2023/04/08 06:19:50;;;;;;;;;;;;;;;;;;5154150;27;2121;-40
2023/04/08 06:22:17;;;;;;;;;;;;;;;;;;5154107;27;2023;-43
2023/04/08 06:24:46;;;;;;;;;;;;;;;;;;5153992;27;1924;-40
2023/04/08 06:27:13;;;;;;;;;;;;;;;;;;5154039;27;2098;-43
2023/04/08 06:29:40;;;;;;;;;;;;;;;;;;5153901;27;1995;-43
2023/04/08 06:32:09;;;;;;;;;;;;;;;;;;5154133;27;1714;-39
2023/04/08 06:34:36;;;;;;;;;;;;;;;;;;5154139;27;1975;-46
2023/04/08 06:37:05;;;;;;;;;;;;;;;;;;5153945;27;2441;-43
2023/04/08 06:39:32;;;;;;;;;;;;;;;;;;5153780;27;1851;-40
2023/04/08 06:42:00;;;;;;;;;;;;;;;;;;5153742;27;2089;-40
2023/04/08 06:44:37;;;;;;;;;;;;;;;;;;5135261;27;2154;-40
2023/04/08 06:47:04;;;;;;;;;;;;;;;;;;5153465;27;1994;-43
2023/04/08 06:49:31;;;;;;;;;;;;;;;;;;5153496;27;1479;-41
2023/04/08 06:51:59;;;;;;;;;;;;;;;;;;5153518;27;1784;-45
2023/04/08 06:54:26;;;;;;;;;;;;;;;;;;5153290;27;1953;-41
2023/04/08 06:56:53;;;;;;;;;;;;;;;;;;5138771;27;2003;-41
2023/04/08 06:59:20;;;;;;;;;;;;;;;;;;5132505;27;2151;-45
2023/04/08 07:01:47;;;;;;;;;;;;;;;;;;5132521;27;2033;-44
2023/04/08 07:04:14;;;;;;;;;;;;;;;;;;5132661;27;2146;-47
2023/04/08 07:06:42;;;;;;;;;;;;;;;;;;5132651;27;1981;-40
2023/04/08 07:09:09;;;;;;;;;;;;;;;;;;5131812;27;2132;-55
2023/04/08 07:11:36;;;;;;;;;;;;;;;;;;5132117;27;2107;-42
2023/04/08 07:14:03;;;;;;;;;;;;;;;;;;5132489;27;1803;-46
2023/04/08 07:16:31;;;;;;;;;;;;;;;;;;5132201;27;2147;-40
2023/04/08 07:18:58;;;;;;;;;;;;;;;;;;5132384;27;1937;-41
2023/04/08 07:21:26;;;;;;;;;;;;;;;;;;5132165;27;2119;-40
2023/04/08 07:23:54;;;;;;;;;;;;;;;;;;5132136;27;1841;-40
2023/04/08 07:26:22;;;;;;;;;;;;;;;;;;5132183;27;2044;-45
2023/04/08 07:28:50;;;;;;;;;;;;;;;;;;5132237;27;2125;-40
2023/04/08 07:31:17;;;;;;;;;;;;;;;;;;5132100;27;1957;-44
2023/04/08 07:33:45;;;;;;;;;;;;;;;;;;5132163;27;2090;-42
2023/04/08 07:36:12;;;;;;;;;;;;;;;;;;5132233;27;1692;-40
2023/04/08 07:38:40;;;;;;;;;;;;;;;;;;5132217;27;1949;-43
2023/04/08 07:41:07;;;;;;;;;;;;;;;;;;5132058;27;2089;-47
2023/04/08 07:43:35;;;;;;;;;;;;;;;;;;5131786;27;1735;-41
2023/04/08 07:46:04;;;;;;;;;;;;;;;;;;5131890;27;1581;-40
2023/04/08 07:48:32;;;;;;;;;;;;;;;;;;5131987;28;1793;-38
2023/04/08 07:51:03;;;;;;;;;;;;;;;;;;5131802;28;2136;-41
2023/04/08 07:53:35;;;;;;;;;;;;;;;;;;5132179;28;2143;-44
2023/04/08 07:56:05;;;;;;;;;;;;;;;;;;5138513;27;1614;-48
2023/04/08 07:58:33;;;;;;;;;;;;;;;;;;5152101;27;1605;-41
2023/04/08 08:01:00;;;;;;;;;;;;;;;;;;5152576;27;1498;-38
2023/04/08 08:03:28;;;;;;;;;;;;;;;;;;5152272;27;1690;-41
2023/04/08 08:05:57;;;;;;;;;;;;;;;;;;5152446;27;1923;-44
2023/04/08 08:08:24;;;;;;;;;;;;;;;;;;5152039;27;2219;-39
2023/04/08 08:10:51;;;;;;;;;;;;;;;;;;5149702;27;2166;-41
2023/04/08 08:13:20;;;;;;;;;;;;;;;;;;5131690;28;2270;-42
2023/04/08 08:15:52;;;;;;;;;;;;;;;;;;5131466;28;1818;-47
2023/04/08 08:18:21;;;;;;;;;;;;;;;;;;5131425;28;2029;-47
2023/04/08 08:20:48;;;;;;;;;;;;;;;;;;5131469;28;2008;-48
2023/04/08 08:23:15;;;;;;;;;;;;;;;;;;5134215;27;1819;-41
2023/04/08 08:25:42;;;;;;;;;;;;;;;;;;5135578;27;1803;-54
2023/04/08 08:28:10;;;;;;;;;;;;;;;;;;5135501;27;2098;-41
2023/04/08 08:30:37;;;;;;;;;;;;;;;;;;5135351;27;1823;-41
2023/04/08 08:33:04;;;;;;;;;;;;;;;;;;5135329;27;2273;-42
2023/04/08 08:35:31;;;;;;;;;;;;;;;;;;5135315;27;1957;-43
2023/04/08 08:38:00;;;;;;;;;;;;;;;;;;5135263;27;1869;-41
2023/04/08 08:40:27;;;;;;;;;;;;;;;;;;5134304;27;1915;-45
2023/04/08 08:42:54;;;;;;;;;;;;;;;;;;5135399;27;1867;-44
2023/04/08 08:45:21;;;;;;;;;;;;;;;;;;5135226;27;2082;-44
2023/04/08 08:47:48;;;;;;;;;;;;;;;;;;5134931;27;1918;-47
2023/04/08 08:50:17;;;;;;;;;;;;;;;;;;5135360;27;1645;-44
2023/04/08 08:52:51;;;;;;;;;;;;;;;;;;5135258;27;2191;-44
2023/04/08 08:55:19;;;;;;;;;;;;;;;;;;5134985;27;1728;-47
2023/04/08 08:58:02;;;;;;;;;;;;;;;;;;5134970;27;1894;-51
2023/04/08 09:00:33;;;;;;;;;;;;;;;;;;5134855;27;1549;-51
2023/04/08 09:03:15;;;;;;;;;;;;;;;;;;5134941;27;2027;-43
2023/04/08 09:06:02;;;;;;;;;;;;;;;;;;5135552;27;2061;-46
2023/04/08 09:08:33;;;;;;;;;;;;;;;;;;5134760;27;1917;-42
2023/04/08 09:11:14;;;;;;;;;;;;;;;;;;5134807;27;1972;-51
2023/04/08 09:13:42;;;;;;;;;;;;;;;;;;5134701;27;2132;-42
2023/04/08 09:16:10;;;;;;;;;;;;;;;;;;5134643;27;1877;-44
2023/04/08 09:18:38;;;;;;;;;;;;;;;;;;5134574;27;1854;-52
2023/04/08 09:21:06;;;;;;;;;;;;;;;;;;5134686;27;1895;-40
2023/04/08 09:23:37;;;;;;;;;;;;;;;;;;5134750;27;1588;-43
2023/04/08 09:26:12;;;;;;;;;;;;;;;;;;5134803;27;1693;-48
2023/04/08 09:28:40;;;;;;;;;;;;;;;;;;5134227;27;2202;-41
2023/04/08 09:31:21;;;;;;;;;;;;;;;;;;5134415;27;1496;-46
2023/04/08 09:33:49;;;;;;;;;;;;;;;;;;5133908;27;2123;-48
2023/04/08 09:36:17;;;;;;;;;;;;;;;;;;5134530;27;1685;-45
2023/04/08 09:38:45;;;;;;;;;;;;;;;;;;5134255;27;2306;-50
2023/04/08 09:41:15;;;;;;;;;;;;;;;;;;5134390;27;1935;-45
2023/04/08 09:44:02;;;;;;;;;;;;;;;;;;5133979;27;1750;-44
2023/04/08 09:46:42;;;;;;;;;;;;;;;;;;5133727;27;2041;-58
2023/04/08 09:49:11;;;;;;;;;;;;;;;;;;5134149;27;1787;-50
2023/04/08 09:51:40;;;;;;;;;;;;;;;;;;5134071;27;1990;-53
2023/04/08 09:54:11;;;;;;;;;;;;;;;;;;5134017;27;2051;-51
2023/04/08 09:56:42;;;;;;;;;;;;;;;;;;5133882;27;1967;-51
2023/04/08 09:59:16;;;;;;;;;;;;;;;;;;5133657;27;1846;-49
2023/04/08 10:01:45;;;;;;;;;;;;;;;;;;5133749;27;1650;-48
2023/04/08 10:04:16;;;;;;;;;;;;;;;;;;5133803;27;2154;-41
2023/04/08 10:06:44;;;;;;;;;;;;;;;;;;5133771;27;2451;-40
2023/04/08 10:09:11;;;;;;;;;;;;;;;;;;5133750;27;2165;-41
2023/04/08 10:11:38;;;;;;;;;;;;;;;;;;5133750;27;1828;-46
2023/04/08 10:14:08;;;;;;;;;;;;;;;;;;5133580;27;1724;-40
2023/04/08 10:16:35;;;;;;;;;;;;;;;;;;5133518;27;2181;-39
2023/04/08 10:19:19;;;;;;;;;;;;;;;;;;5133220;27;1530;-40
2023/04/08 10:21:48;;;;;;;;;;;;;;;;;;5133518;27;2170;-40
2023/04/08 10:24:17;;;;;;;;;;;;;;;;;;5133299;27;1930;-40
2023/04/08 10:26:45;;;;;;;;;;;;;;;;;;5133298;27;1913;-40
2023/04/08 10:29:18;;;;;;;;;;;;;;;;;;5133241;27;1918;-40
2023/04/08 10:31:46;;;;;;;;;;;;;;;;;;5133333;27;2082;-43
2023/04/08 10:34:16;;;;;;;;;;;;;;;;;;5133027;27;1670;-40
2023/04/08 10:36:44;;;;;;;;;;;;;;;;;;5133137;27;2062;-40
2023/04/08 10:39:12;;;;;;;;;;;;;;;;;;5133373;27;2181;-40
2023/04/08 10:41:43;;;;;;;;;;;;;;;;;;5133162;27;2186;-39
2023/04/08 10:44:37;;;;;;;;;;;;;;;;;;5132786;27;2169;-54
2023/04/08 10:47:04;;;;;;;;;;;;;;;;;;5130726;27;1968;-45
2023/04/08 10:49:32;;;;;;;;;;;;;;;;;;5133249;27;1987;-51
2023/04/08 10:51:59;;;;;;;;;;;;;;;;;;5132897;27;2008;-58
2023/04/08 10:54:27;;;;;;;;;;;;;;;;;;5132704;27;1969;-52
2023/04/08 10:56:54;;;;;;;;;;;;;;;;;;5147411;27;1775;-58
2023/04/08 10:59:29;;;;;;;;;;;;;;;;;;5153279;27;1862;-46
2023/04/08 11:01:57;;;;;;;;;;;;;;;;;;5153605;27;2035;-47
2023/04/08 11:04:24;;;;;;;;;;;;;;;;;;5153439;27;2183;-47
2023/04/08 11:06:52;;;;;;;;;;;;;;;;;;5153421;27;2134;-47
2023/04/08 11:09:19;;;;;;;;;;;;;;;;;;5152974;27;1917;-50
2023/04/08 11:11:49;;;;;;;;;;;;;;;;;;5153457;27;2137;-48
2023/04/08 11:14:18;;;;;;;;;;;;;;;;;;5153541;27;1828;-46
2023/04/08 11:16:45;;;;;;;;;;;;;;;;;;5153176;27;2446;-55
2023/04/08 11:19:13;;;;;;;;;;;;;;;;;;5153065;27;2077;-46
2023/04/08 11:21:40;;;;;;;;;;;;;;;;;;5152945;27;1843;-49
2023/04/08 11:24:11;;;;;;;;;;;;;;;;;;5153051;27;1755;-41
2023/04/08 11:26:38;;;;;;;;;;;;;;;;;;5152988;27;1953;-41
2023/04/08 11:29:05;;;;;;;;;;;;;;;;;;5152738;27;2038;-42
2023/04/08 11:31:33;;;;;;;;;;;;;;;;;;5152820;27;2126;-45
2023/04/08 11:34:00;;;;;;;;;;;;;;;;;;5152673;27;1976;-45
2023/04/08 11:36:28;;;;;;;;;;;;;;;;;;5153071;27;1876;-44
2023/04/08 11:38:55;;;;;;;;;;;;;;;;;;5152975;27;1654;-42
2023/04/08 11:41:22;;;;;;;;;;;;;;;;;;5152558;27;2407;-42
2023/04/08 11:43:50;;;;;;;;;;;;;;;;;;5152734;27;1926;-51
2023/04/08 11:46:19;;;;;;;;;;;;;;;;;;5152406;27;2334;-42
2023/04/08 11:48:56;;;;;;;;;;;;;;;;;;5152542;27;2066;-42
2023/04/08 11:51:24;;;;;;;;;;;;;;;;;;5152810;27;2093;-48
2023/04/08 11:53:51;;;;;;;;;;;;;;;;;;5152470;27;2182;-42
2023/04/08 11:56:25;;;;;;;;;;;;;;;;;;5143876;27;2027;-41
2023/04/08 11:58:52;;;;;;;;;;;;;;;;;;5135940;27;1675;-42
2023/04/08 12:01:20;;;;;;;;;;;;;;;;;;5136289;27;2124;-41
2023/04/08 12:03:57;;;;;;;;;;;;;;;;;;5135998;27;2149;-41
2023/04/08 12:06:26;;;;;;;;;;;;;;;;;;5136353;27;2022;-41
2023/04/08 12:08:56;;;;;;;;;;;;;;;;;;5135909;27;1926;-43
2023/04/08 12:11:23;;;;;;;;;;;;;;;;;;5135909;27;1834;-40
2023/04/08 12:13:51;;;;;;;;;;;;;;;;;;5135958;27;1912;-51
2023/04/08 12:16:19;;;;;;;;;;;;;;;;;;5136057;27;1575;-42
2023/04/08 12:18:46;;;;;;;;;;;;;;;;;;5135758;27;1994;-56
2023/04/08 12:21:14;;;;;;;;;;;;;;;;;;5135917;27;1800;-57
2023/04/08 12:23:41;;;;;;;;;;;;;;;;;;5135841;27;2046;-54
2023/04/08 12:26:09;;;;;;;;;;;;;;;;;;5135613;27;1822;-42
2023/04/08 12:28:36;;;;;;;;;;;;;;;;;;5135388;27;2115;-42
2023/04/08 12:31:03;;;;;;;;;;;;;;;;;;5135702;27;2133;-40
2023/04/08 12:33:31;;;;;;;;;;;;;;;;;;5135740;27;1989;-41
2023/04/08 12:35:58;;;;;;;;;;;;;;;;;;5135590;27;2084;-40
2023/04/08 12:38:26;;;;;;;;;;;;;;;;;;5135395;27;2175;-46
2023/04/08 12:40:53;;;;;;;;;;;;;;;;;;5134651;27;2076;-41
2023/04/08 12:43:21;;;;;;;;;;;;;;;;;;5135323;27;2174;-41
2023/04/08 12:45:48;;;;;;;;;;;;;;;;;;5135156;27;2053;-41
2023/04/08 12:48:15;;;;;;;;;;;;;;;;;;5135175;27;1988;-41
2023/04/08 12:50:42;;;;;;;;;;;;;;;;;;5135243;27;2000;-42
2023/04/08 12:53:10;;;;;;;;;;;;;;;;;;5134529;27;1877;-41
2023/04/08 12:55:37;;;;;;;;;;;;;;;;;;5135166;27;2127;-51
2023/04/08 12:58:04;;;;;;;;;;;;;;;;;;5135194;27;2085;-47
2023/04/08 13:00:32;;;;;;;;;;;;;;;;;;5135247;27;2181;-47
2023/04/08 13:02:59;;;;;;;;;;;;;;;;;;5134616;27;1806;-40
2023/04/08 13:05:27;;;;;;;;;;;;;;;;;;5135248;27;1541;-51
2023/04/08 13:08:08;;;;;;;;;;;;;;;;;;5133782;27;2059;-48
2023/04/08 13:10:35;;;;;;;;;;;;;;;;;;5134838;27;1654;-46
2023/04/08 13:13:02;;;;;;;;;;;;;;;;;;5134922;27;2106;-41
2023/04/08 13:15:30;;;;;;;;;;;;;;;;;;5134785;27;2073;-42
2023/04/08 13:17:57;;;;;;;;;;;;;;;;;;5134543;27;1702;-45
2023/04/08 13:20:25;;;;;;;;;;;;;;;;;;5134772;27;1829;-40
2023/04/08 13:22:52;;;;;;;;;;;;;;;;;;5134538;27;1654;-43
2023/04/08 13:25:19;;;;;;;;;;;;;;;;;;5134325;27;2123;-45
2023/04/08 13:27:47;;;;;;;;;;;;;;;;;;5134449;27;1915;-47
2023/04/08 13:30:14;;;;;;;;;;;;;;;;;;5124796;27;2020;-43
2023/04/08 13:32:41;;;;;;;;;;;;;;;;;;5134264;27;1907;-42
2023/04/08 13:35:09;;;;;;;;;;;;;;;;;;5134294;27;1800;-43
2023/04/08 13:37:36;;;;;;;;;;;;;;;;;;5134302;27;1968;-46
2023/04/08 13:40:03;;;;;;;;;;;;;;;;;;5134373;27;1781;-49
2023/04/08 13:42:31;;;;;;;;;;;;;;;;;;5134400;27;1611;-41
2023/04/08 13:44:58;;;;;;;;;;;;;;;;;;5134206;27;1958;-46
2023/04/08 13:47:26;;;;;;;;;;;;;;;;;;5133930;27;1522;-47
2023/04/08 13:49:53;;;;;;;;;;;;;;;;;;5149972;27;1882;-43
2023/04/08 13:52:20;;;;;;;;;;;;;;;;;;5142431;27;1829;-47
2023/04/08 13:54:48;;;;;;;;;;;;;;;;;;5134160;27;1923;-45
2023/04/08 13:57:15;;;;;;;;;;;;;;;;;;5133501;27;1491;-41
2023/04/08 13:59:42;;;;;;;;;;;;;;;;;;5136151;27;1905;-42
2023/04/08 14:02:11;;;;;;;;;;;;;;;;;;5154558;27;2025;-43
2023/04/08 14:04:38;;;;;;;;;;;;;;;;;;5154573;27;1794;-41
2023/04/08 14:07:08;;;;;;;;;;;;;;;;;;5154781;27;2264;-42
2023/04/08 14:09:35;;;;;;;;;;;;;;;;;;5154788;27;1831;-41
2023/04/08 14:12:03;;;;;;;;;;;;;;;;;;5154416;27;1266;-42
2023/04/08 14:14:30;;;;;;;;;;;;;;;;;;5154296;27;1862;-42
2023/04/08 14:16:57;;;;;;;;;;;;;;;;;;5154241;27;2102;-41
2023/04/08 14:19:25;;;;;;;;;;;;;;;;;;5154118;27;1982;-47
2023/04/08 14:21:52;;;;;;;;;;;;;;;;;;5154050;27;1972;-44
2023/04/08 14:24:19;;;;;;;;;;;;;;;;;;5154294;27;1588;-41
2023/04/08 14:26:47;;;;;;;;;;;;;;;;;;5153925;27;2203;-41
2023/04/08 14:29:14;;;;;;;;;;;;;;;;;;5154031;27;1863;-41
2023/04/08 14:31:41;;;;;;;;;;;;;;;;;;5154113;27;1385;-47
2023/04/08 14:34:08;;;;;;;;;;;;;;;;;;5153904;27;1862;-47
2023/04/08 14:36:35;;;;;;;;;;;;;;;;;;5153807;27;1881;-49
2023/04/08 14:39:02;;;;;;;;;;;;;;;;;;5153669;27;2179;-41
2023/04/08 14:41:30;;;;;;;;;;;;;;;;;;5153770;27;1897;-45
2023/04/08 14:43:57;;;;;;;;;;;;;;;;;;5153781;27;1876;-42
2023/04/08 14:46:25;;;;;;;;;;;;;;;;;;5153416;27;1784;-41
2023/04/08 14:48:54;;;;;;;;;;;;;;;;;;5153697;27;1593;-42
2023/04/08 14:51:21;;;;;;;;;;;;;;;;;;5153678;27;2419;-44
2023/04/08 14:53:48;;;;;;;;;;;;;;;;;;5153764;27;1819;-44
2023/04/08 14:56:15;;;;;;;;;;;;;;;;;;5144265;27;1907;-41
2023/04/08 14:58:44;;;;;;;;;;;;;;;;;;5132718;27;1977;-43
2023/04/08 15:01:11;;;;;;;;;;;;;;;;;;5132652;27;1660;-44
2023/04/08 15:03:39;;;;;;;;;;;;;;;;;;5132451;27;1957;-48
2023/04/08 15:06:06;;;;;;;;;;;;;;;;;;5132766;27;1590;-46
2023/04/08 15:08:34;;;;;;;;;;;;;;;;;;5132463;27;1840;-46
2023/04/08 15:11:01;;;;;;;;;;;;;;;;;;5132498;27;1982;-47
2023/04/08 15:13:29;;;;;;;;;;;;;;;;;;5132479;27;1817;-46
2023/04/08 15:15:56;;;;;;;;;;;;;;;;;;5132490;27;2036;-48
2023/04/08 15:18:23;;;;;;;;;;;;;;;;;;5132410;27;2149;-48
2023/04/08 15:20:50;;;;;;;;;;;;;;;;;;5132279;27;2278;-49
2023/04/08 15:23:18;;;;;;;;;;;;;;;;;;5132633;27;2167;-46
2023/04/08 15:25:45;;;;;;;;;;;;;;;;;;5132423;27;1975;-41
2023/04/08 15:28:12;;;;;;;;;;;;;;;;;;5132382;27;1823;-41
2023/04/08 15:30:41;;;;;;;;;;;;;;;;;;5132254;27;2003;-47
2023/04/08 15:33:09;;;;;;;;;;;;;;;;;;5132296;27;1534;-56
2023/04/08 15:35:36;;;;;;;;;;;;;;;;;;5131865;27;1865;-44
2023/04/08 15:38:04;;;;;;;;;;;;;;;;;;5132030;27;1833;-50
2023/04/08 15:40:34;;;;;;;;;;;;;;;;;;5131795;27;2049;-51
2023/04/08 15:43:02;;;;;;;;;;;;;;;;;;5113913;27;2044;-48
2023/04/08 15:45:30;;;;;;;;;;;;;;;;;;5132100;27;2009;-44
2023/04/08 15:47:58;;;;;;;;;;;;;;;;;;5132006;27;1853;-41
2023/04/08 15:50:27;;;;;;;;;;;;;;;;;;5131858;27;2052;-41
2023/04/08 15:52:54;;;;;;;;;;;;;;;;;;5131890;27;1881;-41
2023/04/08 15:55:21;;;;;;;;;;;;;;;;;;5133076;27;1920;-44
2023/04/08 15:57:48;;;;;;;;;;;;;;;;;;5152445;27;1858;-45
2023/04/08 16:00:16;;;;;;;;;;;;;;;;;;5152651;27;1978;-42
2023/04/08 16:02:44;;;;;;;;;;;;;;;;;;5152410;27;1667;-44
2023/04/08 16:05:12;;;;;;;;;;;;;;;;;;5152791;27;2157;-43
2023/04/08 16:07:40;;;;;;;;;;;;;;;;;;5152837;27;2042;-41
2023/04/08 16:10:08;;;;;;;;;;;;;;;;;;5152548;27;1787;-40
2023/04/08 16:12:35;;;;;;;;;;;;;;;;;;5152750;27;1919;-40
2023/04/08 16:15:02;;;;;;;;;;;;;;;;;;5152389;27;1457;-47
2023/04/08 16:17:30;;;;;;;;;;;;;;;;;;5152145;27;1838;-40
2023/04/08 16:19:57;;;;;;;;;;;;;;;;;;5152402;27;1925;-41
2023/04/08 16:22:25;;;;;;;;;;;;;;;;;;5141981;27;1829;-42
2023/04/08 16:24:52;;;;;;;;;;;;;;;;;;5131484;28;1841;-53
2023/04/08 16:27:19;;;;;;;;;;;;;;;;;;5131293;27;1623;-40
2023/04/08 16:29:47;;;;;;;;;;;;;;;;;;5131336;27;1634;-42
2023/04/08 16:32:14;;;;;;;;;;;;;;;;;;5131589;28;1964;-45
2023/04/08 16:34:41;;;;;;;;;;;;;;;;;;5131204;28;1905;-40
2023/04/08 16:37:09;;;;;;;;;;;;;;;;;;5131452;28;1786;-40
2023/04/08 16:39:36;;;;;;;;;;;;;;;;;;5131191;28;1976;-42
2023/04/08 16:42:03;;;;;;;;;;;;;;;;;;5131313;27;2094;-40
2023/04/08 16:44:30;;;;;;;;;;;;;;;;;;5133686;27;1761;-47
2023/04/08 16:46:57;;;;;;;;;;;;;;;;;;5134777;27;1962;-46
2023/04/08 16:49:24;;;;;;;;;;;;;;;;;;5135233;27;1815;-45
2023/04/08 16:51:52;;;;;;;;;;;;;;;;;;5134879;27;1966;-41
2023/04/08 16:54:19;;;;;;;;;;;;;;;;;;5134948;27;1892;-47
2023/04/08 16:56:46;;;;;;;;;;;;;;;;;;5148505;27;1802;-40
2023/04/08 16:59:14;;;;;;;;;;;;;;;;;;5155660;27;2116;-53
2023/04/08 17:01:41;;;;;;;;;;;;;;;;;;5155793;27;1771;-42
2023/04/08 17:04:08;;;;;;;;;;;;;;;;;;5155602;27;2140;-45
2023/04/08 17:06:36;;;;;;;;;;;;;;;;;;5155732;27;1940;-44
2023/04/08 17:09:03;;;;;;;;;;;;;;;;;;5155650;27;1839;-45
2023/04/08 17:11:31;;;;;;;;;;;;;;;;;;5155213;27;2130;-40